Map

Track Data

SID SEASON NUMBER BASIN SUBBASIN NAME ISO_TIME NATURE LAT LON WMO_WIND WMO_PRES WMO_AGENCY TRACK_TYPE DIST2LAND LANDFALL IFLAG USA_AGENCY USA_ATCF_ID USA_LAT USA_LON USA_RECORD USA_STATUS USA_WIND USA_PRES USA_SSHS USA_R34_NE USA_R34_SE USA_R34_SW USA_R34_NW USA_R50_NE USA_R50_SE USA_R50_SW USA_R50_NW USA_R64_NE USA_R64_SE USA_R64_SW USA_R64_NW USA_POCI USA_ROCI USA_RMW USA_EYE TOKYO_LAT TOKYO_LON TOKYO_GRADE TOKYO_WIND TOKYO_PRES TOKYO_R50_DIR TOKYO_R50_LONG TOKYO_R50_SHORT TOKYO_R30_DIR TOKYO_R30_LONG TOKYO_R30_SHORT TOKYO_LAND CMA_LAT CMA_LON CMA_CAT CMA_WIND CMA_PRES HKO_LAT HKO_LON HKO_CAT HKO_WIND HKO_PRES NEWDELHI_LAT NEWDELHI_LON NEWDELHI_GRADE NEWDELHI_WIND NEWDELHI_PRES NEWDELHI_CI NEWDELHI_DP NEWDELHI_POCI REUNION_LAT REUNION_LON REUNION_TYPE REUNION_WIND REUNION_PRES REUNION_TNUM REUNION_CI REUNION_RMW REUNION_R34_NE REUNION_R34_SE REUNION_R34_SW REUNION_R34_NW REUNION_R50_NE REUNION_R50_SE REUNION_R50_SW REUNION_R50_NW REUNION_R64_NE REUNION_R64_SE REUNION_R64_SW REUNION_R64_NW BOM_LAT BOM_LON BOM_TYPE BOM_WIND BOM_PRES BOM_TNUM BOM_CI BOM_RMW BOM_R34_NE BOM_R34_SE BOM_R34_SW BOM_R34_NW BOM_R50_NE BOM_R50_SE BOM_R50_SW BOM_R50_NW BOM_R64_NE BOM_R64_SE BOM_R64_SW BOM_R64_NW BOM_ROCI BOM_POCI BOM_EYE BOM_POS_METHOD BOM_PRES_METHOD NADI_LAT NADI_LON NADI_CAT NADI_WIND NADI_PRES WELLINGTON_LAT WELLINGTON_LON WELLINGTON_WIND WELLINGTON_PRES DS824_LAT DS824_LON DS824_STAGE DS824_WIND DS824_PRES TD9636_LAT TD9636_LON TD9636_STAGE TD9636_WIND TD9636_PRES TD9635_LAT TD9635_LON TD9635_WIND TD9635_PRES TD9635_ROCI NEUMANN_LAT NEUMANN_LON NEUMANN_CLASS NEUMANN_WIND NEUMANN_PRES MLC_LAT MLC_LON MLC_CLASS MLC_WIND MLC_PRES USA_GUST BOM_GUST BOM_GUST_PER REUNION_GUST REUNION_GUST_PER USA_SEAHGT USA_SEARAD_NE USA_SEARAD_SE USA_SEARAD_SW USA_SEARAD_NW STORM_SPEED STORM_DIR
1860039S17057 1860 6 SI MM NOT_NAMED 1860-02-07 18:00:00 NR -17.3000 56.7000 main 324 301 __________O___ -1 -17.3000 56.7000 7 13 233
1860039S17057 1860 6 SI MM NOT_NAMED 1860-02-07 21:00:00 NR -17.6906 56.1587 main 301 295 __________P___ -1 -17.6906 56.1587 7 13 233
1860039S17057 1860 6 SI MM NOT_NAMED 1860-02-08 00:00:00 NR -18.0643 55.6428 main 299 290 __________P___ -1 -18.0643 55.6428 7 12 232
1860039S17057 1860 6 SI MM NOT_NAMED 1860-02-08 03:00:00 NR -18.4058 55.1804 main 291 260 __________P___ -1 -18.4058 55.1804 7 10 232
1860039S17057 1860 6 SI MM NOT_NAMED 1860-02-08 06:00:00 NR -18.7000 54.8000 main 262 246 __________O___ -1 -18.7000 54.8000 7 8 230
1860039S17057 1860 6 SI MM NOT_NAMED 1860-02-08 09:00:00 NR -18.9383 54.5198 main 249 232 __________P___ -1 -18.9383 54.5198 7 6 226
1860039S17057 1860 6 SI MM NOT_NAMED 1860-02-08 12:00:00 NR -19.1366 54.3161 main 236 222 __________P___ -1 -19.1366 54.3161 7 5 222
1860039S17057 1860 6 SI MM NOT_NAMED 1860-02-08 15:00:00 NR -19.3166 54.1544 main 222 215 __________P___ -1 -19.3166 54.1544 7 5 219
1860039S17057 1860 6 SI MM NOT_NAMED 1860-02-08 18:00:00 NR -19.5000 54.0000 main 215 213 __________O___ -1 -19.5000 54.0000 7 5 223
1860039S17057 1860 6 SI MM NOT_NAMED 1860-02-08 21:00:00 NR -19.6771 53.8035 main 213 213 __________P___ -1 -19.6771 53.8035 7 5 225
1860039S17057 1860 6 SI MM NOT_NAMED 1860-02-09 00:00:00 NR -19.8674 53.6066 main 213 213 __________P___ -1 -19.8674 53.6066 7 6 222
1860039S17057 1860 6 SI MM NOT_NAMED 1860-02-09 03:00:00 NR -20.0990 53.4064 main 218 212 __________P___ -1 -20.0990 53.4064 7 7 216
1860039S17057 1860 6 SI MM NOT_NAMED 1860-02-09 06:00:00 NR -20.4000 53.2000 main 222 218 __________O___ -1 -20.4000 53.2000 7 8 211
1860039S17057 1860 6 SI MM NOT_NAMED 1860-02-09 09:00:00 NR -20.7789 52.9702 main 230 230 __________P___ -1 -20.7789 52.9702 7 9 208
1860039S17057 1860 6 SI MM NOT_NAMED 1860-02-09 12:00:00 NR -21.2302 52.7352 main 259 259 __________P___ -1 -21.2302 52.7352 7 11 204
1860039S17057 1860 6 SI MM NOT_NAMED 1860-02-09 15:00:00 NR -21.7414 52.5076 main 287 287 __________P___ -1 -21.7414 52.5076 7 11 201
1860039S17057 1860 6 SI MM NOT_NAMED 1860-02-09 18:00:00 NR -22.3000 52.3000 main 328 328 __________O___ -1 -22.3000 52.3000 7 12 198
1860039S17057 1860 6 SI MM NOT_NAMED 1860-02-09 21:00:00 NR -22.9143 52.0926 main 374 374 __________P___ -1 -22.9143 52.0926 7 13 196
1860039S17057 1860 6 SI MM NOT_NAMED 1860-02-10 00:00:00 NR -23.5649 51.9112 main 425 421 __________P___ -1 -23.5649 51.9112 7 13 193
1860039S17057 1860 6 SI MM NOT_NAMED 1860-02-10 03:00:00 NR -24.2081 51.7741 main 426 421 __________P___ -1 -24.2081 51.7741 7 13 189
1860039S17057 1860 6 SI MM NOT_NAMED 1860-02-10 06:00:00 NR -24.8000 51.7000 main 434 434 __________O___ -1 -24.8000 51.7000 7 11 184
1860039S17057 1860 6 SI MM NOT_NAMED 1860-02-10 09:00:00 NR -25.2782 51.6973 main 448 448 __________P___ -1 -25.2782 51.6973 7 9 177
1860039S17057 1860 6 SI MM NOT_NAMED 1860-02-10 12:00:00 NR -25.7023 51.7592 main 472 472 __________P___ -1 -25.7023 51.7592 7 8 169
1860039S17057 1860 6 SI MM NOT_NAMED 1860-02-10 15:00:00 NR -26.1002 51.8665 main 495 495 __________P___ -1 -26.1002 51.8665 7 8 165
1860039S17057 1860 6 SI MM NOT_NAMED 1860-02-10 18:00:00 NR -26.5000 52.0000 main 518 518 __________O___ -1 -26.5000 52.0000 7 9 165
1860039S17057 1860 6 SI MM NOT_NAMED 1860-02-10 21:00:00 NR -26.9794 52.1280 main 546 546 __________P___ -1 -26.9794 52.1280 7 10 166
1860039S17057 1860 6 SI MM NOT_NAMED 1860-02-11 00:00:00 NR -27.4600 52.2768 main 588 588 __________P___ -1 -27.4600 52.2768 7 10 164
1860039S17057 1860 6 SI MM NOT_NAMED 1860-02-11 03:00:00 NR -27.9106 52.4374 main 618 618 __________P___ -1 -27.9106 52.4374 7 9 161
1860039S17057 1860 6 SI MM NOT_NAMED 1860-02-11 06:00:00 NR -28.3000 52.6000 main 658 658 __________O___ -1 -28.3000 52.6000 7 7 159
1860039S17057 1860 6 SI MM NOT_NAMED 1860-02-11 09:00:00 NR -28.5977 52.7425 main 685 685 __________P___ -1 -28.5977 52.7425 7 6 155
1860039S17057 1860 6 SI MM NOT_NAMED 1860-02-11 12:00:00 NR -28.8323 52.8858 main 714 714 __________P___ -1 -28.8323 52.8858 7 5 149
1860039S17057 1860 6 SI MM NOT_NAMED 1860-02-11 15:00:00 NR -29.0258 53.0362 main 735 735 __________P___ -1 -29.0258 53.0362 7 5 143
1860039S17057 1860 6 SI MM NOT_NAMED 1860-02-11 18:00:00 NR -29.2000 53.2000 main 763 763 __________O___ -1 -29.2000 53.2000 7 5 139
1860039S17057 1860 6 SI MM NOT_NAMED 1860-02-11 21:00:00 NR -29.3730 53.3819 main 792 792 __________P___ -1 -29.3730 53.3819 7 5 136
1860039S17057 1860 6 SI MM NOT_NAMED 1860-02-12 00:00:00 NR -29.5479 53.5791 main 814 814 __________P___ -1 -29.5479 53.5791 7 5 135
1860039S17057 1860 6 SI MM NOT_NAMED 1860-02-12 03:00:00 NR -29.7238 53.7868 main 843 843 __________P___ -1 -29.7238 53.7868 7 5 134
1860039S17057 1860 6 SI MM NOT_NAMED 1860-02-12 06:00:00 NR -29.9000 54.0000 main 872 __________O___ -1 -29.9000 54.0000 7 5 133

About IBTrACS Database

This database is a web-friendly format of International Best Track Archive for Climate Stewardship (IBTrACS), a global best track data archive curated by NOAA dating back to 1842.

Updated: 2021-12-08